createdAt,value
2017-10-13T00:01:31.918Z,99.20
2017-10-13T00:04:00.379Z,99.10
2017-10-13T00:06:28.778Z,99.20
2017-10-13T00:08:57.163Z,99.30
2017-10-13T00:11:25.646Z,99.30
2017-10-13T00:13:54.034Z,99.30
2017-10-13T00:16:23.188Z,99.30
2017-10-13T00:18:51.598Z,99.30
2017-10-13T00:21:19.991Z,99.30
2017-10-13T00:23:48.371Z,99.30
2017-10-13T00:26:17.222Z,99.30
2017-10-13T00:28:45.603Z,99.20
2017-10-13T00:31:13.983Z,99.20
2017-10-13T00:33:42.416Z,99.20
2017-10-13T00:36:10.807Z,99.10
2017-10-13T00:38:39.212Z,99.10
2017-10-13T00:41:07.893Z,99.00
2017-10-13T00:43:36.279Z,99.00
2017-10-13T00:46:04.683Z,99.10
2017-10-13T00:48:33.094Z,99.10
2017-10-13T00:51:01.491Z,99.20
2017-10-13T00:53:29.868Z,99.30
2017-10-13T00:55:58.307Z,99.60
2017-10-13T00:58:27.539Z,99.80
2017-10-13T01:00:56.103Z,99.80
2017-10-13T01:03:25.286Z,99.60
2017-10-13T01:05:54.448Z,99.60
2017-10-13T01:08:22.830Z,99.50
2017-10-13T01:10:51.259Z,99.40
2017-10-13T01:13:19.638Z,99.30
2017-10-13T01:15:48.016Z,99.40
2017-10-13T01:18:16.451Z,99.40
2017-10-13T01:20:44.855Z,99.40
2017-10-13T01:23:13.259Z,99.40
2017-10-13T01:25:41.683Z,99.40
2017-10-13T01:28:10.087Z,99.50
2017-10-13T01:30:39.239Z,99.50
2017-10-13T01:33:08.312Z,99.40
2017-10-13T01:35:36.688Z,99.50
2017-10-13T01:38:05.092Z,99.40
2017-10-13T01:40:33.505Z,99.30
2017-10-13T01:43:01.902Z,99.00
2017-10-13T01:45:31.044Z,99.00
2017-10-13T01:47:59.458Z,99.00
2017-10-13T01:50:27.858Z,99.20
2017-10-13T01:52:57.023Z,99.00
2017-10-13T01:55:26.362Z,99.00
2017-10-13T01:57:55.515Z,98.60
2017-10-13T02:00:23.910Z,98.70
2017-10-13T02:02:52.399Z,99.10
2017-10-13T02:05:20.820Z,99.80
2017-10-13T02:07:49.195Z,99.90
2017-10-13T02:10:17.607Z,99.90
2017-10-13T02:12:45.992Z,99.90
2017-10-13T02:15:14.425Z,99.90
2017-10-13T02:17:42.861Z,99.90
2017-10-13T02:20:11.273Z,99.90
2017-10-13T02:22:40.410Z,99.90
2017-10-13T02:25:08.826Z,99.90
2017-10-13T02:27:37.197Z,99.90
2017-10-13T02:30:05.584Z,99.90
2017-10-13T02:32:34.779Z,99.90
2017-10-13T02:35:03.154Z,99.90
2017-10-13T02:37:31.536Z,99.90
2017-10-13T02:39:59.933Z,99.90
2017-10-13T02:42:29.093Z,99.90
2017-10-13T02:44:57.511Z,99.90
2017-10-13T02:47:26.713Z,99.90
2017-10-13T02:49:55.162Z,99.90
2017-10-13T02:52:24.303Z,99.90
2017-10-13T02:54:52.718Z,99.90
2017-10-13T02:57:21.113Z,99.90
2017-10-13T02:59:49.490Z,99.90
2017-10-13T03:02:18.076Z,99.90
2017-10-13T03:04:46.459Z,99.90
2017-10-13T03:07:14.852Z,99.90
2017-10-13T03:09:44.298Z,99.90
2017-10-13T03:12:12.673Z,99.90
2017-10-13T03:14:41.063Z,99.90
2017-10-13T03:17:09.754Z,99.90
2017-10-13T03:19:38.146Z,99.90
2017-10-13T03:22:06.534Z,99.90
2017-10-13T03:24:34.971Z,99.90
2017-10-13T03:27:03.362Z,99.90
2017-10-13T03:29:31.744Z,99.90
2017-10-13T03:32:01.123Z,99.90
2017-10-13T03:34:29.504Z,99.90
2017-10-13T03:36:57.885Z,99.90
2017-10-13T03:39:26.886Z,99.90
2017-10-13T03:41:55.263Z,99.90
2017-10-13T03:44:23.652Z,99.90
2017-10-13T03:46:52.111Z,99.90
2017-10-13T03:49:20.514Z,99.90
2017-10-13T03:51:48.893Z,99.90
2017-10-13T03:54:17.315Z,99.50
2017-10-13T03:56:46.464Z,99.60
2017-10-13T03:59:14.925Z,99.60
2017-10-13T04:01:43.378Z,99.90
2017-10-13T04:04:12.776Z,99.40
2017-10-13T04:06:41.922Z,99.60
2017-10-13T04:09:10.331Z,99.60
2017-10-13T04:11:38.730Z,99.50
2017-10-13T04:14:07.872Z,99.70
2017-10-13T04:16:36.281Z,99.70
2017-10-13T04:19:04.665Z,99.90
2017-10-13T04:21:33.047Z,99.40
2017-10-13T04:24:01.453Z,99.50
2017-10-13T04:26:30.600Z,99.80
2017-10-13T04:28:58.975Z,99.80
2017-10-13T04:31:27.964Z,99.30
2017-10-13T04:33:57.293Z,99.00
2017-10-13T04:36:26.283Z,99.20
2017-10-13T04:38:56.295Z,99.00
2017-10-13T04:41:25.249Z,98.50
2017-10-13T04:43:54.195Z,99.00
2017-10-13T04:46:24.100Z,98.80
2017-10-13T04:48:53.089Z,98.60
2017-10-13T04:51:21.473Z,98.80
2017-10-13T04:53:49.877Z,99.10
2017-10-13T04:56:19.027Z,99.10
2017-10-13T04:58:47.403Z,99.10
2017-10-13T05:01:16.071Z,99.00
2017-10-13T05:03:44.471Z,99.00
2017-10-13T05:06:13.093Z,98.90
2017-10-13T05:08:42.251Z,99.60
2017-10-13T05:11:10.682Z,99.60
2017-10-13T05:13:39.054Z,99.70
2017-10-13T05:16:07.466Z,99.70
2017-10-13T05:18:35.840Z,99.70
2017-10-13T05:21:04.223Z,99.60
2017-10-13T05:23:32.675Z,99.70
2017-10-13T05:26:01.361Z,99.90
2017-10-13T05:28:29.738Z,99.80
2017-10-13T05:30:58.144Z,99.80
2017-10-13T05:33:26.531Z,99.90
2017-10-13T05:35:54.912Z,99.90
2017-10-13T05:38:23.314Z,99.90
2017-10-13T05:40:51.692Z,99.90
2017-10-13T05:43:20.122Z,99.60
2017-10-13T05:45:48.550Z,99.30
2017-10-13T05:48:16.923Z,99.40
2017-10-13T05:50:45.324Z,99.10
2017-10-13T05:53:14.498Z,99.20
2017-10-13T05:55:42.873Z,99.10
2017-10-13T05:58:13.294Z,98.40
2017-10-13T06:00:42.739Z,98.10
2017-10-13T06:03:12.049Z,98.00
2017-10-13T06:05:41.225Z,98.20
2017-10-13T06:08:10.637Z,98.50
2017-10-13T06:10:39.794Z,98.40
2017-10-13T06:13:08.175Z,98.40
2017-10-13T06:15:36.568Z,98.30
2017-10-13T06:18:04.942Z,97.60
2017-10-13T06:20:33.330Z,97.40
2017-10-13T06:23:01.734Z,97.00
2017-10-13T06:25:30.887Z,97.90
2017-10-13T06:27:59.267Z,97.90
2017-10-13T06:30:27.703Z,97.60
2017-10-13T06:32:56.099Z,97.60
2017-10-13T06:35:24.476Z,96.70
2017-10-13T06:37:52.905Z,96.60
2017-10-13T06:40:21.297Z,96.20
2017-10-13T06:42:50.453Z,94.00
2017-10-13T06:45:18.855Z,94.00
2017-10-13T06:47:47.259Z,92.60
2017-10-13T06:50:16.467Z,90.00
2017-10-13T06:52:44.890Z,90.00
2017-10-13T06:55:13.275Z,87.90
2017-10-13T06:57:42.056Z,82.30
2017-10-13T07:00:10.533Z,79.20
2017-10-13T07:02:38.931Z,80.00
2017-10-13T07:05:07.325Z,78.60
2017-10-13T07:07:36.520Z,81.00
2017-10-13T07:10:05.897Z,78.90
2017-10-13T07:12:34.319Z,78.80
2017-10-13T07:15:02.781Z,75.70
2017-10-13T07:17:31.984Z,77.00
2017-10-13T07:20:01.242Z,77.40
2017-10-13T07:22:29.668Z,77.40
2017-10-13T07:24:58.148Z,77.20
2017-10-13T07:27:27.321Z,79.50
2017-10-13T07:29:55.762Z,79.40
2017-10-13T07:32:24.179Z,80.50
2017-10-13T07:34:52.611Z,78.90
2017-10-13T07:37:21.516Z,76.10
2017-10-13T07:39:49.910Z,73.60
2017-10-13T07:42:18.310Z,72.20
2017-10-13T07:44:46.719Z,69.40
2017-10-13T07:47:15.100Z,65.30
2017-10-13T07:49:45.823Z,61.40
2017-10-13T07:52:14.256Z,61.30
2017-10-13T07:54:42.632Z,59.60
2017-10-13T07:57:11.050Z,59.10
2017-10-13T07:59:39.483Z,58.10
2017-10-13T08:02:07.870Z,60.00
2017-10-13T08:04:36.248Z,59.10
2017-10-13T08:07:04.668Z,57.30
2017-10-13T08:09:33.814Z,55.30
2017-10-13T08:12:02.196Z,55.30
2017-10-13T08:14:30.610Z,55.50
2017-10-13T08:16:59.068Z,54.00
2017-10-13T08:19:27.452Z,52.90
2017-10-13T08:21:55.898Z,51.00
2017-10-13T08:24:24.296Z,52.20
2017-10-13T08:26:52.689Z,51.30
2017-10-13T08:29:21.103Z,51.50
2017-10-13T08:31:49.485Z,51.90
2017-10-13T08:34:17.863Z,52.20
2017-10-13T08:36:47.047Z,53.70
2017-10-13T08:39:16.424Z,53.60
2017-10-13T08:41:44.840Z,52.90
2017-10-13T08:44:14.028Z,52.10
2017-10-13T08:46:42.406Z,52.20
2017-10-13T08:49:11.557Z,53.50
2017-10-13T08:51:40.841Z,53.50
2017-10-13T08:54:09.246Z,53.10
2017-10-13T08:56:37.628Z,52.80
2017-10-13T08:59:06.042Z,50.50
2017-10-13T09:01:35.212Z,50.10
2017-10-13T09:04:03.587Z,50.10
2017-10-13T09:06:32.020Z,50.00
2017-10-13T09:09:00.424Z,49.40
2017-10-13T09:11:29.175Z,48.20
2017-10-13T09:13:58.370Z,48.20
2017-10-13T09:16:27.546Z,47.80
2017-10-13T09:18:55.944Z,47.70
2017-10-13T09:21:25.142Z,48.50
2017-10-13T09:23:54.306Z,47.50
2017-10-13T09:26:22.744Z,47.50
2017-10-13T09:28:51.200Z,48.10
2017-10-13T09:31:19.604Z,48.10
2017-10-13T09:33:47.995Z,47.00
2017-10-13T09:36:16.443Z,46.00
2017-10-13T09:38:44.834Z,45.00
2017-10-13T09:41:13.310Z,45.90
2017-10-13T09:43:41.719Z,46.50
2017-10-13T09:46:10.096Z,45.20
2017-10-13T09:48:38.484Z,45.50
2017-10-13T09:51:06.915Z,46.50
2017-10-13T09:53:36.065Z,47.70
2017-10-13T09:56:04.445Z,47.70
2017-10-13T09:58:32.867Z,47.50
2017-10-13T10:01:02.041Z,47.70
2017-10-13T10:03:30.410Z,47.70
2017-10-13T10:05:58.839Z,45.40
2017-10-13T10:08:27.227Z,45.40
2017-10-13T10:10:55.621Z,46.00
2017-10-13T10:13:24.049Z,45.40
2017-10-13T10:15:53.413Z,45.70
2017-10-13T10:18:21.809Z,45.70
2017-10-13T10:20:50.232Z,44.60
2017-10-13T10:23:18.622Z,42.60
2017-10-13T10:25:47.006Z,42.50
2017-10-13T10:28:15.431Z,43.00
2017-10-13T10:30:43.817Z,41.40
2017-10-13T10:33:12.215Z,40.70
2017-10-13T10:35:41.414Z,42.20
2017-10-13T10:38:10.550Z,41.20
2017-10-13T10:40:38.926Z,41.20
2017-10-13T10:43:07.345Z,39.30
2017-10-13T10:45:35.739Z,38.70
2017-10-13T10:48:04.904Z,43.50
2017-10-13T10:50:33.315Z,43.40
2017-10-13T10:53:02.887Z,45.70
2017-10-13T10:55:31.270Z,45.70
2017-10-13T10:57:59.688Z,43.40
2017-10-13T11:00:28.072Z,42.50
2017-10-13T11:02:56.469Z,42.50
2017-10-13T11:05:24.879Z,42.00
2017-10-13T11:07:53.252Z,40.30
2017-10-13T11:10:21.630Z,39.70
2017-10-13T11:12:50.042Z,41.70
2017-10-13T11:15:19.207Z,41.60
2017-10-13T11:17:47.687Z,41.60
2017-10-13T11:20:16.117Z,41.60
2017-10-13T11:22:44.499Z,41.20
2017-10-13T11:25:12.935Z,41.50
2017-10-13T11:27:41.357Z,40.60
2017-10-13T11:30:09.736Z,39.90
2017-10-13T11:32:38.117Z,38.80
2017-10-13T11:35:06.527Z,39.20
2017-10-13T11:40:09.527Z,40.90
2017-10-13T11:42:37.908Z,41.20
2017-10-13T11:45:06.618Z,41.80
2017-10-13T11:47:35.038Z,42.20
2017-10-13T11:50:03.429Z,40.70
2017-10-13T11:52:31.829Z,39.60
2017-10-13T11:55:00.263Z,39.30
2017-10-13T11:57:29.407Z,42.10
2017-10-13T11:59:57.792Z,42.00
2017-10-13T12:02:26.372Z,42.80
2017-10-13T12:04:54.755Z,43.30
2017-10-13T12:07:23.144Z,45.70
2017-10-13T12:09:53.059Z,47.90
2017-10-13T12:12:21.438Z,47.80
2017-10-13T12:14:49.819Z,47.60
2017-10-13T12:17:18.227Z,47.40
2017-10-13T12:19:47.384Z,46.40
2017-10-13T12:22:16.555Z,45.80
2017-10-13T12:24:45.007Z,45.70
2017-10-13T12:27:14.156Z,45.10
2017-10-13T12:29:42.548Z,45.10
2017-10-13T12:32:11.105Z,45.00
2017-10-13T12:34:39.480Z,45.00
2017-10-13T12:37:07.940Z,45.60
2017-10-13T12:39:36.347Z,44.80
2017-10-13T12:42:04.732Z,46.40
2017-10-13T12:44:33.123Z,46.60
2017-10-13T12:47:01.564Z,46.70
2017-10-13T12:49:29.960Z,46.60
2017-10-13T12:51:58.355Z,47.10
2017-10-13T12:54:26.797Z,48.10
2017-10-13T12:56:55.303Z,49.40
2017-10-13T12:59:23.683Z,49.80
2017-10-13T13:01:52.102Z,50.60
2017-10-13T13:04:21.246Z,49.60
2017-10-13T13:06:49.627Z,49.60
2017-10-13T13:09:18.050Z,48.60
2017-10-13T13:11:46.430Z,48.40
2017-10-13T13:14:14.804Z,47.40
2017-10-13T13:16:43.251Z,47.60
2017-10-13T13:19:11.652Z,46.80
2017-10-13T13:21:40.046Z,46.80
2017-10-13T13:24:08.450Z,47.80
2017-10-13T13:26:36.827Z,47.40
2017-10-13T13:29:05.212Z,46.50
2017-10-13T13:31:33.640Z,45.80
2017-10-13T13:34:02.128Z,46.10
2017-10-13T13:36:30.513Z,47.30
2017-10-13T13:38:58.928Z,47.50
2017-10-13T13:41:27.308Z,47.20
2017-10-13T13:43:55.694Z,48.70
2017-10-13T13:46:24.106Z,48.70
2017-10-13T13:48:52.489Z,48.80
2017-10-13T13:51:20.878Z,49.10
2017-10-13T13:53:49.303Z,49.40
2017-10-13T13:56:17.680Z,50.00
2017-10-13T13:58:46.068Z,50.60
2017-10-13T14:01:14.624Z,51.90
2017-10-13T14:03:43.771Z,52.40
2017-10-13T14:06:12.187Z,52.30
2017-10-13T14:08:41.372Z,52.20
2017-10-13T14:11:09.755Z,52.20
2017-10-13T14:13:38.149Z,53.10
2017-10-13T14:16:06.885Z,53.40
2017-10-13T14:18:35.266Z,53.70
2017-10-13T14:21:03.645Z,54.20
2017-10-13T14:23:32.048Z,55.00
2017-10-13T14:26:00.449Z,55.20
2017-10-13T14:28:29.599Z,55.40
2017-10-13T14:30:58.003Z,55.40
2017-10-13T14:33:26.387Z,55.70
2017-10-13T14:35:54.763Z,56.00
2017-10-13T14:38:23.216Z,57.00
2017-10-13T14:40:51.686Z,56.90
2017-10-13T14:43:20.150Z,55.90
2017-10-13T14:45:48.575Z,56.00
2017-10-13T14:48:16.978Z,55.80
2017-10-13T14:50:46.177Z,55.70
2017-10-13T14:53:15.387Z,56.40
2017-10-13T14:55:43.791Z,56.30
2017-10-13T14:58:12.176Z,57.20
2017-10-13T15:00:40.654Z,56.70
2017-10-13T15:03:09.065Z,56.80
2017-10-13T15:05:37.463Z,57.60
2017-10-13T15:08:06.662Z,57.40
2017-10-13T15:10:35.864Z,57.80
2017-10-13T15:13:05.027Z,56.90
2017-10-13T15:15:33.445Z,56.90
2017-10-13T15:18:01.830Z,56.90
2017-10-13T15:20:30.219Z,57.40
2017-10-13T15:22:58.649Z,57.50
2017-10-13T15:25:32.588Z,58.00
2017-10-13T15:28:07.416Z,57.70
2017-10-13T15:30:41.175Z,57.80
2017-10-13T15:33:15.039Z,58.20
2017-10-13T15:35:48.875Z,58.60
2017-10-13T15:41:23.987Z,58.90
2017-10-13T15:43:58.769Z,60.70
2017-10-13T15:46:32.730Z,60.70
2017-10-13T15:49:07.247Z,62.20
2017-10-13T15:51:41.825Z,61.90
2017-10-13T15:54:10.261Z,61.80
2017-10-13T15:56:39.995Z,63.90
2017-10-13T15:59:08.451Z,66.20
2017-10-13T16:01:37.796Z,66.90
2017-10-13T16:04:06.175Z,66.90
2017-10-13T16:06:34.553Z,67.10
2017-10-13T16:09:03.140Z,68.30
2017-10-13T16:11:31.518Z,69.70
2017-10-13T16:14:00.175Z,70.70
2017-10-13T16:16:28.888Z,71.10
2017-10-13T16:21:31.900Z,73.50
2017-10-13T16:24:01.092Z,74.20
2017-10-13T16:26:29.491Z,74.90
2017-10-13T16:28:58.280Z,76.00
2017-10-13T16:31:27.437Z,77.90
2017-10-13T16:33:55.815Z,77.90
2017-10-13T16:36:24.338Z,78.80
2017-10-13T16:38:52.726Z,79.90
2017-10-13T16:41:21.877Z,81.30
2017-10-13T16:43:50.688Z,81.10
2017-10-13T16:46:19.112Z,82.00
2017-10-13T16:48:48.313Z,83.80
2017-10-13T16:51:16.886Z,83.60
2017-10-13T16:53:45.360Z,83.60
2017-10-13T16:56:14.565Z,84.90
2017-10-13T16:58:44.021Z,86.00
2017-10-13T17:01:15.549Z,86.00
2017-10-13T17:03:47.298Z,86.80
2017-10-13T17:06:17.974Z,87.40
2017-10-13T17:08:48.338Z,88.10
2017-10-13T17:11:19.063Z,89.80
2017-10-13T17:13:49.103Z,90.50
2017-10-13T17:16:19.052Z,90.20
2017-10-13T17:18:49.372Z,90.40
2017-10-13T17:21:20.205Z,90.90
2017-10-13T17:23:51.487Z,90.90
2017-10-13T17:26:21.866Z,91.20
2017-10-13T17:28:52.855Z,92.50
2017-10-13T17:31:23.675Z,91.80
2017-10-13T17:33:54.200Z,91.70
2017-10-13T17:36:24.623Z,91.60
2017-10-13T17:38:54.703Z,91.80
2017-10-13T17:41:25.488Z,91.90
2017-10-13T17:43:55.208Z,92.10
2017-10-13T17:46:25.713Z,92.10
2017-10-13T17:48:55.495Z,92.00
2017-10-13T17:51:25.416Z,92.00
2017-10-13T17:53:55.561Z,92.00
2017-10-13T17:56:26.552Z,92.20
2017-10-13T17:58:56.359Z,92.30
2017-10-13T18:01:26.218Z,92.50
2017-10-13T18:03:56.242Z,92.80
2017-10-13T18:06:26.525Z,92.80
2017-10-13T18:08:56.519Z,93.00
2017-10-13T18:11:27.333Z,93.30
2017-10-13T18:13:57.059Z,93.30
2017-10-13T18:16:27.484Z,93.60
2017-10-13T18:18:57.379Z,93.70
2017-10-13T18:21:27.472Z,93.70
2017-10-13T18:23:56.930Z,93.80
2017-10-13T18:26:27.139Z,93.80
2017-10-13T18:28:57.336Z,93.90
2017-10-13T18:31:27.563Z,93.70
2017-10-13T18:33:57.819Z,93.50
2017-10-13T18:36:28.029Z,93.50
2017-10-13T18:38:58.175Z,93.40
2017-10-13T18:41:28.034Z,93.30
2017-10-13T18:43:58.087Z,93.50
2017-10-13T18:46:28.223Z,93.70
2017-10-13T18:48:58.291Z,93.80
2017-10-13T18:51:28.396Z,93.90
2017-10-13T18:53:58.000Z,93.80
2017-10-13T18:56:26.683Z,93.90
2017-10-13T18:58:56.122Z,93.70
2017-10-13T19:01:24.577Z,93.70
2017-10-13T19:03:53.213Z,94.00
2017-10-13T19:06:22.071Z,93.90
2017-10-13T19:08:51.233Z,93.90
2017-10-13T19:11:20.331Z,93.90
2017-10-13T19:13:48.995Z,94.00
2017-10-13T19:16:17.491Z,94.40
2017-10-13T19:18:45.918Z,94.40
2017-10-13T19:21:15.419Z,94.50
2017-10-13T19:23:44.752Z,94.50
2017-10-13T19:26:13.206Z,94.60
2017-10-13T19:28:42.402Z,94.80
2017-10-13T19:31:10.791Z,94.80
2017-10-13T19:33:40.080Z,94.80
2017-10-13T19:36:09.231Z,95.00
2017-10-13T19:38:37.656Z,95.00
2017-10-13T19:41:06.845Z,95.40
2017-10-13T19:43:35.995Z,95.30
2017-10-13T19:46:04.416Z,95.20
2017-10-13T19:48:32.807Z,95.30
2017-10-13T19:51:01.213Z,95.30
2017-10-13T19:53:29.785Z,95.40
2017-10-13T19:55:58.168Z,95.50
2017-10-13T19:58:27.108Z,95.80
2017-10-13T20:00:55.523Z,96.20
2017-10-13T20:03:24.669Z,96.30
2017-10-13T20:05:53.089Z,96.30
2017-10-13T20:08:22.259Z,97.10
2017-10-13T20:10:50.937Z,97.10
2017-10-13T20:13:19.334Z,97.50
2017-10-13T20:15:47.783Z,97.40
2017-10-13T20:18:16.200Z,96.70
2017-10-13T20:20:44.595Z,96.20
2017-10-13T20:23:13.790Z,95.60
2017-10-13T20:25:42.940Z,95.50
2017-10-13T20:28:11.622Z,95.50
2017-10-13T20:30:39.995Z,95.50
2017-10-13T20:33:08.387Z,95.70
2017-10-13T20:35:36.816Z,95.90
2017-10-13T20:38:05.966Z,95.90
2017-10-13T20:40:34.452Z,95.90
2017-10-13T20:43:02.846Z,95.90
2017-10-13T20:45:31.258Z,95.90
2017-10-13T20:47:59.655Z,95.60
2017-10-13T20:50:28.043Z,95.40
2017-10-13T20:52:56.839Z,96.00
2017-10-13T20:55:25.238Z,96.60
2017-10-13T20:57:53.608Z,96.80
2017-10-13T21:00:22.007Z,96.60
2017-10-13T21:02:50.391Z,96.40
2017-10-13T21:05:18.802Z,96.20
2017-10-13T21:07:47.197Z,96.00
2017-10-13T21:10:15.896Z,96.50
2017-10-13T21:12:44.275Z,96.50
2017-10-13T21:15:12.796Z,96.50
2017-10-13T21:17:41.196Z,96.60
2017-10-13T21:20:10.700Z,97.30
2017-10-13T21:22:39.939Z,97.30
2017-10-13T21:25:08.829Z,96.60
2017-10-13T21:27:38.538Z,96.40
2017-10-13T21:30:07.434Z,96.10
2017-10-13T21:32:36.116Z,96.30
2017-10-13T21:35:04.852Z,96.30
2017-10-13T21:37:34.624Z,96.00
2017-10-13T21:40:05.932Z,96.00
2017-10-13T21:42:34.382Z,95.80
2017-10-13T21:45:03.628Z,95.60
2017-10-13T21:47:32.161Z,95.60
2017-10-13T21:50:01.732Z,95.80
2017-10-13T21:52:30.821Z,95.80
2017-10-13T21:54:59.711Z,95.80
2017-10-13T21:57:28.648Z,95.90
2017-10-13T21:59:57.504Z,96.00
2017-10-13T22:02:27.072Z,96.10
2017-10-13T22:05:01.635Z,96.10
2017-10-13T22:07:30.496Z,96.10
2017-10-13T22:09:58.907Z,96.20
2017-10-13T22:12:27.312Z,96.00
2017-10-13T22:14:56.489Z,95.90
2017-10-13T22:17:24.997Z,95.90
2017-10-13T22:19:54.147Z,95.80
2017-10-13T22:22:22.524Z,95.80
2017-10-13T22:24:50.927Z,95.80
2017-10-13T22:27:19.310Z,95.80
2017-10-13T22:29:49.340Z,95.80
2017-10-13T22:32:17.986Z,95.90
2017-10-13T22:34:46.877Z,96.50
2017-10-13T22:37:16.284Z,95.80
2017-10-13T22:39:45.369Z,95.80
2017-10-13T22:42:14.472Z,96.50
2017-10-13T22:44:43.226Z,96.50
2017-10-13T22:47:11.698Z,96.90
2017-10-13T22:49:40.127Z,96.30
2017-10-13T22:52:08.707Z,96.40
2017-10-13T22:54:37.602Z,96.50
2017-10-13T22:57:06.415Z,96.50
2017-10-13T22:59:34.812Z,96.50
2017-10-13T23:02:03.982Z,96.60
2017-10-13T23:04:33.126Z,96.60
2017-10-13T23:07:01.710Z,96.60
2017-10-13T23:09:30.163Z,96.50
2017-10-13T23:11:59.318Z,96.20
2017-10-13T23:14:27.750Z,96.20
2017-10-13T23:16:56.117Z,96.30
2017-10-13T23:19:25.337Z,96.60
2017-10-13T23:21:53.711Z,96.60
2017-10-13T23:24:22.091Z,97.90
2017-10-13T23:26:50.505Z,97.10
2017-10-13T23:29:18.896Z,96.50
2017-10-13T23:31:47.274Z,96.90
2017-10-13T23:34:15.696Z,96.40
2017-10-13T23:36:44.075Z,96.40
2017-10-13T23:39:12.457Z,96.50
2017-10-13T23:41:40.880Z,96.60
2017-10-13T23:44:09.250Z,96.50
2017-10-13T23:46:37.623Z,96.50
2017-10-13T23:49:06.034Z,96.70
2017-10-13T23:51:34.406Z,96.70
2017-10-13T23:54:03.543Z,96.70
2017-10-13T23:56:31.949Z,96.40
2017-10-13T23:59:00.326Z,96.50
